Time;durP1;ratioP1;P1;durP2;ratioP2;P2;SDS_P1;SDS_P2;PMS_P1;PMS_P2;Temp;Humidity;BMP_temperature;BMP_pressure;BME280_temperature;BME280_humidity;BME280_pressure;Samples;Min_cycle;Max_cycle;Signal;HPM_P1;HPM_P2
2023/04/21 00:04:55;;;;;;;10.70;3.83;;;11.00;91.50;;;9.51;70.34;100097.63;10379137;28;96648;-86
2023/04/21 00:09:58;;;;;;;5.30;2.93;;;10.90;91.60;;;9.44;70.42;100093.97;10393393;28;96672;-87
2023/04/21 00:15:02;;;;;;;5.53;2.43;;;10.90;91.70;;;9.37;70.62;100088.47;10393986;28;96591;-86
2023/04/21 00:20:08;;;;;;;7.43;2.63;;;10.80;91.80;;;9.30;70.68;100084.81;10394577;28;97418;-86
2023/04/21 00:25:11;;;;;;;6.53;2.80;;;10.80;91.90;;;9.24;70.69;100082.81;10372740;28;96595;-85
2023/04/21 00:30:15;;;;;;;6.27;2.97;;;10.70;92.00;;;9.17;71.02;100079.13;10372339;28;96519;-85
2023/04/21 00:35:18;;;;;;;5.33;3.17;;;10.60;92.10;;;9.14;70.96;100078.66;10368299;28;96656;-85
2023/04/21 00:40:21;;;;;;;5.83;2.43;;;10.50;92.30;;;9.05;71.06;100072.47;10360882;28;98140;-85
2023/04/21 00:45:24;;;;;;;9.57;2.93;;;10.50;92.20;;;9.01;70.81;100071.97;10410460;28;97292;-84
2023/04/21 00:50:28;;;;;;;4.50;2.13;;;10.50;92.30;;;8.99;70.89;100075.75;10411032;28;96674;-86
2023/04/21 00:55:31;;;;;;;5.80;2.30;;;10.40;92.30;;;8.92;70.70;100072.94;10377525;28;96500;-85
2023/04/21 01:00:35;;;;;;;6.27;2.47;;;10.40;92.30;;;8.89;70.72;100067.97;10392365;28;98410;-86
2023/04/21 01:05:38;;;;;;;4.93;2.07;;;10.30;92.30;;;8.82;70.88;100073.06;10375328;28;97074;-86
2023/04/21 01:10:41;;;;;;;5.27;2.40;;;10.30;92.30;;;8.77;71.07;100074.53;10414451;27;96602;-86
2023/04/21 01:15:44;;;;;;;7.60;2.57;;;10.20;92.40;;;8.69;71.29;100069.19;10396788;28;96907;-86
2023/04/21 01:20:48;;;;;;;8.13;2.63;;;10.10;92.50;;;8.64;71.45;100067.03;10361580;28;96540;-86
2023/04/21 01:25:53;;;;;;;7.00;2.93;;;10.10;92.60;;;8.61;71.23;100074.47;10369648;28;96424;-86
2023/04/21 01:30:56;;;;;;;5.83;2.23;;;10.10;92.70;;;8.55;71.26;100063.50;10396230;28;98768;-86
2023/04/21 01:36:00;;;;;;;10.90;3.00;;;10.00;92.80;;;8.54;71.04;100066.31;10366771;28;96466;-86
2023/04/21 01:41:03;;;;;;;6.73;2.43;;;10.00;92.70;;;8.52;70.71;100065.66;10382300;28;96624;-86
2023/04/21 01:46:07;;;;;;;6.30;2.23;;;10.00;92.70;;;8.47;70.83;100063.47;10381877;28;96720;-85
2023/04/21 01:51:10;;;;;;;3.40;2.23;;;9.90;92.60;;;8.46;70.67;100061.00;10398223;28;96690;-86
2023/04/21 01:56:14;;;;;;;5.23;2.10;;;9.90;92.70;;;8.42;70.72;100059.63;10400532;28;98679;-86
2023/04/21 02:01:17;;;;;;;8.20;2.50;;;9.90;92.70;;;8.37;71.01;100062.75;10399002;28;97538;-86
2023/04/21 02:06:20;;;;;;;6.10;2.43;;;9.80;92.70;;;8.33;70.80;100056.88;10399064;28;96932;-86
2023/04/21 02:11:26;;;;;;;10.03;2.10;;;9.80;92.80;;;8.39;70.40;100073.16;10382237;28;96663;-86
2023/04/21 02:16:29;;;;;;;10.23;2.57;;;9.80;92.70;;;8.43;70.16;100056.81;10399005;28;96576;-86
2023/04/21 02:21:32;;;;;;;6.80;1.93;;;9.80;92.70;;;8.47;69.85;100062.63;10398151;27;96512;-86
2023/04/21 02:26:35;;;;;;;8.60;2.40;;;9.90;92.60;;;8.50;69.46;100064.97;10362883;28;98606;-86
2023/04/21 02:31:39;;;;;;;4.40;2.00;;;9.90;92.50;;;8.51;68.99;100062.16;10378612;28;96563;-86
2023/04/21 02:37:01;;;;;;;6.37;2.17;;;10.00;92.40;;;8.57;69.06;100073.94;10396226;28;96566;-86
2023/04/21 02:42:04;;;;;;;5.23;2.00;;;10.00;92.40;;;8.55;68.88;100068.78;10407183;28;96606;-86
2023/04/21 02:47:07;;;;;;;6.17;1.93;;;10.00;92.30;;;8.48;68.76;100064.28;10393485;28;96511;-86
2023/04/21 02:52:10;;;;;;;8.77;2.23;;;9.90;92.30;;;8.43;69.12;100071.88;10403407;28;96808;-86
2023/04/21 02:57:13;;;;;;;8.17;2.93;;;9.90;92.30;;;8.38;69.33;100074.16;10414570;28;96583;-87
2023/04/21 03:02:16;;;;;;;5.77;2.33;;;9.80;92.40;;;8.35;69.19;100080.59;10411534;28;96981;-86
2023/04/21 03:07:19;;;;;;;7.37;2.73;;;9.80;92.30;;;8.32;69.51;100087.00;10371433;28;96833;-87
2023/04/21 03:12:22;;;;;;;8.73;2.40;;;9.80;92.40;;;8.25;70.01;100083.31;10406379;27;96646;-87
2023/04/21 03:17:25;;;;;;;9.20;2.87;;;9.70;92.50;;;8.19;69.87;100077.81;10387348;28;97566;-87
2023/04/21 03:22:28;;;;;;;10.50;3.40;;;9.60;92.50;;;8.11;70.17;100081.25;10396125;28;96506;-87
2023/04/21 03:27:32;;;;;;;4.57;2.33;;;9.60;92.60;;;8.05;70.28;100095.09;10375992;28;96675;-87
2023/04/21 03:32:35;;;;;;;12.40;2.77;;;9.50;92.70;;;7.98;70.68;100094.06;10391890;27;97437;-87
2023/04/21 03:37:38;;;;;;;7.67;4.63;;;9.40;92.70;;;7.93;70.68;100096.34;10375204;28;96632;-83
2023/04/21 03:42:41;;;;;;;18.93;7.77;;;9.40;92.80;;;7.87;70.96;100094.31;10377827;28;96744;-83
2023/04/21 03:47:44;;;;;;;12.77;5.10;;;9.30;92.90;;;7.83;71.01;100099.06;10375493;28;97318;-86
2023/04/21 03:52:47;;;;;;;9.87;3.57;;;9.30;93.00;;;7.82;71.04;100099.22;10372247;28;97051;-84
2023/04/21 03:57:50;;;;;;;8.50;3.33;;;9.30;93.10;;;7.85;70.68;100099.72;10392816;28;98501;-83
2023/04/21 04:02:53;;;;;;;9.97;2.67;;;9.30;93.10;;;7.96;70.16;100106.59;10388880;28;98266;-83
2023/04/21 04:07:57;;;;;;;5.57;2.63;;;9.40;93.10;;;8.07;69.84;100103.72;10384419;28;98430;-84
2023/04/21 04:13:00;;;;;;;6.57;2.97;;;9.50;93.00;;;8.26;69.05;100116.75;10366326;28;98495;-84
2023/04/21 04:18:03;;;;;;;12.87;4.10;;;9.70;92.80;;;8.46;68.79;100120.06;10410922;28;96562;-83
2023/04/21 04:23:06;;;;;;;7.53;2.73;;;9.90;92.70;;;8.64;68.97;100121.84;10394090;28;98323;-83
2023/04/21 04:28:09;;;;;;;7.40;3.70;;;10.00;92.70;;;8.81;68.60;100119.09;10396771;28;96365;-83
2023/04/21 04:33:12;;;;;;;7.90;2.50;;;10.20;92.60;;;9.08;67.10;100130.47;10394253;28;97188;-83
2023/04/21 04:38:15;;;;;;;4.67;2.07;;;10.40;92.70;;;9.43;66.21;100131.25;10395430;28;96588;-84
2023/04/21 04:43:18;;;;;;;9.43;3.00;;;10.70;91.90;;;9.89;63.40;100135.13;10381673;27;96588;-83
2023/04/21 04:48:21;;;;;;;6.20;2.10;;;11.10;91.20;;;10.26;62.29;100134.69;10386885;28;96532;-83
2023/04/21 04:53:27;;;;;;;4.03;1.70;;;11.50;90.60;;;10.56;61.56;100134.97;10402760;28;96567;-83
2023/04/21 04:58:30;;;;;;;7.07;2.60;;;11.80;90.30;;;10.75;61.48;100137.25;10367624;28;96581;-84
2023/04/21 05:03:33;;;;;;;3.87;2.13;;;12.00;90.00;;;10.87;60.08;100138.53;10386666;28;96403;-84
2023/04/21 05:08:36;;;;;;;5.97;2.80;;;12.10;88.70;;;10.99;59.19;100137.16;10385592;28;96728;-83
2023/04/21 05:13:39;;;;;;;4.77;2.07;;;12.20;88.00;;;11.13;58.91;100134.78;10403564;28;96645;-84
2023/04/21 05:18:42;;;;;;;9.20;2.67;;;12.30;87.50;;;11.33;57.92;100136.00;10419014;28;96566;-83
2023/04/21 05:23:45;;;;;;;10.57;2.30;;;12.50;86.70;;;11.52;56.00;100127.59;10421474;28;97000;-84
2023/04/21 05:28:48;;;;;;;11.67;2.40;;;12.70;84.80;;;11.78;54.51;100140.56;10369016;28;96843;-84
2023/04/21 05:33:52;;;;;;;8.03;2.47;;;12.90;82.80;;;11.97;54.00;100123.31;10402056;28;96518;-85
2023/04/21 05:38:55;;;;;;;6.47;2.50;;;13.10;81.60;;;12.16;53.32;100132.66;10405286;28;96581;-84
2023/04/21 05:43:58;;;;;;;7.47;2.40;;;13.30;80.00;;;12.31;50.38;100133.53;10385139;28;96457;-88
2023/04/21 05:49:01;;;;;;;8.67;1.97;;;13.50;76.60;;;12.41;51.28;100124.44;10403326;28;97892;-84
2023/04/21 05:54:04;;;;;;;9.77;2.70;;;13.60;76.40;;;12.50;50.39;100132.19;10419324;27;97242;-86
2023/04/21 05:59:07;;;;;;;9.50;3.20;;;13.70;75.20;;;12.59;49.62;100141.75;10385254;28;96580;-85
2023/04/21 06:04:10;;;;;;;14.33;4.27;;;13.80;73.90;;;12.70;49.36;100128.97;10400507;28;96532;-84
2023/04/21 06:09:14;;;;;;;9.57;2.40;;;13.90;73.20;;;12.86;49.25;100134.13;10397915;28;96591;-85
2023/04/21 06:14:17;;;;;;;8.90;2.50;;;14.10;73.60;;;13.00;48.37;100130.63;10384433;28;96656;-84
2023/04/21 06:19:21;;;;;;;6.10;2.40;;;14.20;71.80;;;13.15;47.49;100124.47;10383782;28;96898;-84
2023/04/21 06:24:24;;;;;;;12.53;2.93;;;14.40;71.00;;;13.27;47.04;100115.00;10399866;28;96678;-85
2023/04/21 06:29:27;;;;;;;6.77;2.30;;;14.50;70.20;;;13.45;47.35;100123.41;10382803;28;96528;-85
2023/04/21 06:34:30;;;;;;;4.57;2.10;;;14.70;70.10;;;13.60;47.67;100129.50;10385739;28;97063;-85
2023/04/21 06:39:33;;;;;;;9.73;2.53;;;14.80;69.90;;;13.70;46.33;100126.56;10399456;28;96725;-84
2023/04/21 06:44:37;;;;;;;7.80;2.50;;;14.90;68.60;;;13.73;45.49;100125.31;10404196;28;96528;-85
2023/04/21 06:49:40;;;;;;;7.37;2.60;;;15.00;67.20;;;13.85;46.41;100119.31;10398031;28;96517;-85
2023/04/21 06:54:43;;;;;;;6.53;2.87;;;15.10;67.90;;;13.92;46.35;100120.19;10415784;28;96639;-84
2023/04/21 06:59:46;;;;;;;13.70;2.60;;;15.20;67.70;;;14.10;45.60;100119.75;10383140;28;96515;-86
2023/04/21 07:04:52;;;;;;;7.50;2.92;;;15.30;66.90;;;14.23;45.57;100116.34;10399649;28;97349;-84
2023/04/21 07:09:55;;;;;;;7.18;2.53;;;15.40;66.70;;;14.42;44.74;100107.66;10382067;28;97076;-85
2023/04/21 07:14:58;;;;;;;7.60;2.55;;;15.70;66.10;;;14.46;44.36;100116.13;10382025;28;96477;-86
2023/04/21 07:20:02;;;;;;;10.48;2.83;;;15.70;65.00;;;14.71;43.81;100113.84;10399791;28;96574;-85
2023/04/21 07:25:05;;;;;;;8.13;2.63;;;15.80;64.70;;;14.85;43.39;100107.53;10356243;28;96824;-86
2023/04/21 07:30:09;;;;;;;7.13;2.53;;;16.00;64.00;;;15.25;43.19;100111.22;10387233;28;96620;-87
2023/04/21 07:35:12;;;;;;;10.18;2.60;;;16.20;64.20;;;16.35;42.66;100094.91;10398357;28;96445;-85
2023/04/21 07:40:15;;;;;;;10.07;2.60;;;16.50;64.70;;;16.57;39.95;100101.69;10397013;28;96768;-86
2023/04/21 07:45:18;;;;;;;6.20;2.95;;;16.90;62.90;;;16.31;40.95;100103.38;10381532;28;96445;-86
2023/04/21 07:50:22;;;;;;;6.70;2.85;;;17.00;62.30;;;16.70;39.30;100098.16;10380871;28;96564;-85
2023/04/21 07:55:25;;;;;;;6.97;2.80;;;17.10;60.70;;;16.85;39.69;100091.53;10379735;28;96632;-86
2023/04/21 08:00:28;;;;;;;9.85;2.85;;;17.20;60.90;;;16.60;40.28;100088.66;10397325;28;96616;-85
2023/04/21 08:05:31;;;;;;;8.07;2.80;;;17.30;60.80;;;16.28;40.25;100095.72;10398679;28;97960;-85
2023/04/21 08:10:38;;;;;;;6.90;1.92;;;17.40;60.00;;;16.32;39.66;100099.66;10379623;28;96661;-85
2023/04/21 08:15:41;;;;;;;7.38;2.42;;;17.40;59.50;;;16.40;39.33;100087.88;10395855;28;97244;-85
2023/04/21 08:20:46;;;;;;;9.05;2.70;;;17.60;58.40;;;16.57;38.60;100089.09;10394467;28;96558;-87
2023/04/21 08:25:49;;;;;;;8.85;2.50;;;17.80;57.80;;;16.74;39.28;100094.88;10377143;28;98359;-85
2023/04/21 08:30:52;;;;;;;5.75;2.17;;;18.00;57.80;;;16.91;39.15;100083.66;10395732;28;96473;-84
2023/04/21 08:35:55;;;;;;;6.50;2.50;;;18.10;57.80;;;17.28;39.36;100082.06;10395973;28;96627;-87
2023/04/21 08:41:12;;;;;;;6.65;2.50;;;18.50;58.10;;;17.43;38.23;100081.78;10380835;28;96589;-85
2023/04/21 08:46:16;;;;;;;6.72;2.40;;;18.80;57.00;;;17.82;38.55;100076.19;10395268;28;96595;-85
2023/04/21 08:51:26;;;;;;;7.78;2.80;;;19.10;57.30;;;18.26;37.41;100076.25;10361973;28;96631;-86
2023/04/21 08:56:29;;;;;;;5.35;2.13;;;19.30;56.30;;;18.68;37.03;100063.84;10413680;28;96492;-85
2023/04/21 09:01:32;;;;;;;7.88;2.90;;;19.90;55.70;;;19.13;34.00;100067.03;10380102;28;96443;-88
2023/04/21 09:06:42;;;;;;;5.85;2.78;;;20.40;52.90;;;19.92;33.03;100062.38;10394284;28;96677;-87
2023/04/21 09:11:57;;;;;;;5.97;2.83;;;20.90;52.50;;;20.50;31.53;100058.91;10352016;28;96467;-88
2023/04/21 09:17:02;;;;;;;5.53;2.80;;;21.20;51.40;;;20.60;30.79;100058.31;10357132;28;97480;-85
2023/04/21 09:22:06;;;;;;;7.03;2.90;;;21.30;49.90;;;20.21;32.51;100055.25;10395434;28;98191;-86
2023/04/21 09:27:09;;;;;;;7.20;3.38;;;21.00;50.30;;;20.11;31.72;100059.59;10394323;28;96532;-86
2023/04/21 09:32:17;;;;;;;6.18;2.88;;;21.00;50.20;;;20.21;32.58;100043.63;10381514;28;96430;-85
2023/04/21 09:37:23;;;;;;;6.20;3.00;;;21.10;50.30;;;20.70;31.40;100046.91;10384875;28;96466;-89
2023/04/21 09:42:31;;;;;;;7.97;3.45;;;21.40;49.80;;;20.38;30.22;100033.75;10401238;28;96668;-86
2023/04/21 09:47:40;;;;;;;4.93;3.00;;;21.50;48.20;;;20.10;31.43;100033.69;10386848;28;96553;-90
2023/04/21 09:52:46;;;;;;;5.30;3.00;;;21.50;48.00;;;20.65;32.04;100025.22;10384645;28;96533;-85
2023/04/21 09:57:51;;;;;;;5.95;2.65;;;21.90;49.20;;;21.42;29.75;100016.75;10385463;28;96430;-85
2023/04/21 10:02:57;;;;;;;6.75;3.08;;;22.30;47.90;;;21.31;29.98;100018.44;10384392;28;96531;-88
2023/04/21 10:08:01;;;;;;;5.10;3.40;;;22.10;47.80;;;21.32;31.46;100009.25;10386508;28;96470;-85
2023/04/21 10:13:04;;;;;;;5.10;2.92;;;22.00;48.60;;;21.02;30.02;100004.06;10400038;28;96741;-85
2023/04/21 10:18:24;;;;;;;5.13;2.75;;;22.00;47.30;;;20.98;31.71;100008.31;10400452;28;96611;-84
2023/04/21 10:23:37;;;;;;;4.10;2.50;;;22.00;48.40;;;21.20;31.48;100001.16;10401220;28;96601;-87
2023/04/21 10:28:46;;;;;;;7.75;3.95;;;22.20;48.70;;;21.19;31.20;99983.31;10417419;28;96683;-83
2023/04/21 10:34:25;;;;;;;6.07;3.20;;;22.30;47.90;;;21.32;29.95;99982.22;10382142;28;96438;-88
2023/04/21 10:39:35;;;;;;;7.82;3.78;;;22.60;46.50;;;21.35;30.06;99987.97;10402440;28;98832;-85
2023/04/21 10:44:56;;;;;;;9.85;3.10;;;22.60;46.70;;;21.11;29.79;99978.28;10384039;28;96797;-85
2023/04/21 10:50:30;;;;;;;5.30;2.90;;;22.50;46.60;;;20.97;30.42;99976.97;10416168;28;98565;-84
2023/04/21 10:55:33;;;;;;;6.60;2.83;;;22.50;46.50;;;20.69;30.65;99975.91;10382242;28;96488;-85
2023/04/21 11:00:37;;;;;;;6.65;3.47;;;22.20;46.80;;;20.12;32.38;99974.91;10399775;28;96519;-84
2023/04/21 11:05:41;;;;;;;5.65;3.10;;;21.70;47.50;;;19.96;32.43;99968.34;10382572;28;96431;-84
2023/04/21 11:10:49;;;;;;;4.93;2.88;;;21.50;47.80;;;20.18;32.94;99966.69;10399008;28;96636;-83
2023/04/21 11:16:07;;;;;;;6.18;3.20;;;21.50;48.20;;;20.69;32.39;99962.41;10381829;28;97245;-84
2023/04/21 11:21:17;;;;;;;7.75;3.00;;;21.90;48.30;;;20.82;30.15;99966.69;10397523;28;96539;-86
2023/04/21 11:26:43;;;;;;;4.38;2.50;;;22.00;47.20;;;20.44;30.92;99965.34;10398974;28;96726;-84
2023/04/21 11:31:49;;;;;;;5.05;2.40;;;21.80;47.30;;;20.28;31.63;99966.91;10383099;28;96649;-83
2023/04/21 11:36:52;;;;;;;3.63;2.33;;;21.60;47.60;;;20.10;32.29;99956.28;10383805;28;96505;-83
2023/04/21 11:41:55;;;;;;;6.20;3.28;;;21.40;48.00;;;19.95;32.48;99962.13;10381164;28;96421;-84
2023/04/21 11:46:59;;;;;;;6.03;2.70;;;21.30;48.10;;;19.53;32.19;99954.09;10396611;28;96638;-83
2023/04/21 11:52:01;;;;;;;5.70;3.05;;;21.10;47.60;;;19.42;32.86;99952.19;10397088;28;96526;-83
2023/04/21 11:57:05;;;;;;;5.22;3.03;;;20.80;48.70;;;19.31;33.15;99961.09;10380760;28;96507;-83
2023/04/21 12:02:21;;;;;;;3.60;2.42;;;20.70;48.50;;;19.35;33.83;99950.66;10365189;28;96927;-84
2023/04/21 12:07:24;;;;;;;4.80;2.63;;;20.70;49.00;;;19.35;33.51;99948.78;10380130;28;96666;-83
2023/04/21 12:12:28;;;;;;;4.32;2.58;;;20.70;48.70;;;19.57;33.69;99950.94;10396975;28;96512;-84
2023/04/21 12:17:42;;;;;;;6.30;3.30;;;20.90;49.00;;;19.79;32.13;99943.94;10397034;28;96520;-85
2023/04/21 12:22:46;;;;;;;8.60;2.78;;;21.30;48.00;;;20.01;32.66;99942.31;10397050;28;96549;-83
2023/04/21 12:27:49;;;;;;;4.78;2.67;;;21.50;48.10;;;20.00;32.10;99934.47;10341003;28;97529;-83
2023/04/21 12:32:54;;;;;;;4.80;2.70;;;21.40;47.50;;;20.04;32.55;99931.06;10371060;28;96380;-83
2023/04/21 12:37:57;;;;;;;5.60;3.05;;;21.40;48.00;;;20.05;31.62;99930.00;10391987;28;96501;-84
2023/04/21 12:43:00;;;;;;;5.20;2.58;;;21.40;47.80;;;19.98;33.02;99934.69;10379101;28;98544;-84
2023/04/21 12:48:04;;;;;;;8.35;2.90;;;21.30;48.30;;;19.94;32.28;99925.44;10377872;28;97396;-84
2023/04/21 12:53:07;;;;;;;5.32;2.80;;;21.20;48.00;;;19.86;32.22;99920.41;10411780;28;96517;-85
2023/04/21 12:58:11;;;;;;;6.40;3.10;;;21.10;48.00;;;19.64;32.38;99919.34;10411848;28;96433;-84
2023/04/21 13:03:15;;;;;;;5.75;2.95;;;21.00;47.70;;;19.50;32.80;99922.25;10395968;28;96409;-84
2023/04/21 13:08:20;;;;;;;4.25;2.85;;;20.90;48.00;;;19.51;32.94;99918.47;10400619;28;96564;-83
2023/04/21 13:13:23;;;;;;;4.97;2.47;;;20.80;48.30;;;19.44;32.29;99920.47;10377560;28;96541;-84
2023/04/21 13:18:26;;;;;;;5.72;2.80;;;20.70;47.90;;;19.39;32.54;99919.53;10357991;28;98322;-83
2023/04/21 13:23:29;;;;;;;4.95;2.58;;;20.60;48.20;;;19.28;32.74;99921.16;10383576;28;98527;-83
2023/04/21 13:28:32;;;;;;;4.35;2.45;;;20.60;48.20;;;19.28;32.98;99915.75;10368238;28;96569;-83
2023/04/21 13:33:36;;;;;;;4.78;3.17;;;20.50;48.20;;;19.33;33.07;99913.19;10383981;28;96542;-83
2023/04/21 13:38:39;;;;;;;5.28;3.15;;;20.50;48.30;;;19.29;33.18;99903.09;10384215;28;96876;-83
2023/04/21 13:43:43;;;;;;;7.43;3.03;;;20.60;48.40;;;19.30;32.45;99902.03;10384272;28;96728;-83
2023/04/21 13:48:46;;;;;;;3.95;3.00;;;20.60;48.30;;;19.34;33.19;99901.34;10385835;28;97346;-82
2023/04/21 13:53:49;;;;;;;4.20;2.80;;;20.60;48.60;;;19.37;33.31;99887.44;10400162;28;96617;-83
2023/04/21 13:58:53;;;;;;;4.78;3.05;;;20.70;48.50;;;19.33;32.71;99890.81;10385096;28;96511;-83
2023/04/21 14:03:56;;;;;;;5.32;2.95;;;20.70;48.30;;;19.47;33.19;99882.28;10385597;28;98341;-83
2023/04/21 14:09:00;;;;;;;5.00;2.70;;;20.80;48.40;;;19.59;32.59;99871.53;10417384;28;96699;-84
2023/04/21 14:14:03;;;;;;;5.32;2.55;;;20.90;48.40;;;19.80;32.73;99869.31;10358519;28;96552;-83
2023/04/21 14:19:14;;;;;;;5.00;3.10;;;21.20;48.20;;;19.98;32.27;99859.19;10362806;28;96766;-83
2023/04/21 14:24:17;;;;;;;7.88;2.55;;;21.50;48.00;;;20.42;32.28;99854.13;10359224;28;96593;-83
2023/04/21 14:29:22;;;;;;;7.25;3.15;;;21.90;48.20;;;21.17;30.57;99849.50;10393566;28;96602;-83
2023/04/21 14:34:25;;;;;;;3.72;2.42;;;22.90;46.80;;;22.09;29.96;99846.28;10367025;28;96501;-84
2023/04/21 14:39:28;;;;;;;5.55;2.90;;;23.90;46.30;;;23.01;28.84;99829.13;10416266;28;96558;-84
2023/04/21 14:44:32;;;;;;;4.18;2.20;;;24.90;45.60;;;23.50;26.95;99823.50;10400023;28;98647;-84
2023/04/21 14:49:37;;;;;;;5.95;2.40;;;25.70;44.40;;;23.49;26.96;99821.88;10398903;28;96681;-84
2023/04/21 14:54:40;;;;;;;4.78;2.60;;;25.60;43.60;;;23.14;26.75;99825.97;10399884;28;96581;-84
2023/04/21 14:59:45;;;;;;;3.65;2.10;;;25.50;42.70;;;23.50;27.02;99820.78;10383005;28;96425;-84
2023/04/21 15:04:49;;;;;;;6.05;3.00;;;25.80;42.50;;;23.82;26.22;99826.19;10398543;28;96463;-84
2023/04/21 15:09:54;;;;;;;4.43;2.90;;;26.30;41.90;;;24.11;24.42;99814.88;10396578;28;98883;-85
2023/04/21 15:14:57;;;;;;;4.32;2.45;;;26.50;40.90;;;24.24;24.64;99803.53;10398934;28;96491;-85
2023/04/21 15:20:00;;;;;;;3.88;2.22;;;26.50;40.30;;;24.20;24.22;99810.56;10365056;28;96608;-85
2023/04/21 15:25:03;;;;;;;4.88;2.30;;;26.10;40.00;;;23.80;25.32;99806.63;10382534;28;96558;-85
2023/04/21 15:30:07;;;;;;;4.68;2.45;;;25.80;40.50;;;23.41;25.16;99801.50;10396386;28;96713;-85
2023/04/21 15:35:10;;;;;;;6.05;3.05;;;25.50;40.60;;;23.21;26.85;99809.47;10398984;28;96633;-86
2023/04/21 15:40:14;;;;;;;4.50;2.65;;;25.20;41.10;;;23.02;26.47;99803.66;10397988;28;96693;-84
2023/04/21 15:45:17;;;;;;;5.10;2.58;;;25.00;41.30;;;22.98;26.71;99807.97;10416060;28;97599;-84
2023/04/21 15:50:20;;;;;;;3.90;2.63;;;24.90;41.30;;;22.89;26.70;99796.78;10397647;28;96609;-84
2023/04/21 15:55:26;;;;;;;4.78;2.50;;;24.80;41.20;;;22.66;27.89;99802.50;10396387;28;96731;-84
2023/04/21 16:00:29;;;;;;;4.75;3.08;;;24.40;41.70;;;22.26;26.98;99800.22;10396357;28;96536;-84
2023/04/21 16:05:32;;;;;;;3.95;2.55;;;24.20;41.50;;;22.03;27.24;99798.59;10397116;28;96498;-84
2023/04/21 16:10:36;;;;;;;4.10;2.45;;;23.70;41.70;;;21.73;27.98;99788.22;10387883;28;98101;-84
2023/04/21 16:15:39;;;;;;;4.80;2.63;;;23.30;42.00;;;21.16;28.91;99781.16;10377525;27;97371;-85
2023/04/21 16:20:44;;;;;;;7.95;2.90;;;22.70;42.70;;;20.65;29.03;99787.63;10371926;28;97793;-92
2023/04/21 16:25:48;;;;;;;4.78;2.85;;;22.10;43.20;;;20.30;30.26;99789.41;10394745;28;97368;-90
2023/04/21 16:30:51;;;;;;;7.05;2.75;;;21.70;44.00;;;20.24;31.06;99787.66;10385578;28;97259;-91
2023/04/21 16:35:54;;;;;;;3.55;2.20;;;21.60;44.80;;;20.27;30.66;99783.66;10414961;27;97126;-89
2023/04/21 16:40:59;;;;;;;6.38;2.90;;;21.70;44.60;;;20.31;30.73;99788.34;10403997;28;98650;-90
2023/04/21 16:46:02;;;;;;;5.18;3.15;;;21.70;44.70;;;20.08;31.54;99785.72;10400603;28;97423;-90
2023/04/21 16:51:05;;;;;;;4.50;2.63;;;21.50;45.10;;;19.74;32.84;99795.56;10396165;28;98470;-90
2023/04/21 16:56:09;;;;;;;4.30;2.60;;;21.10;46.00;;;19.20;33.66;99793.00;10410481;28;96926;-90
2023/04/21 17:01:12;;;;;;;5.90;2.95;;;20.50;47.00;;;18.75;34.98;99803.47;10398027;28;97890;-89
2023/04/21 17:06:19;;;;;;;5.50;3.15;;;20.00;48.10;;;18.30;35.69;99798.53;10412426;28;97788;-91
2023/04/21 17:11:28;;;;;;;5.90;3.72;;;19.60;49.00;;;17.87;36.85;99799.50;10398764;28;96881;-91
2023/04/21 17:16:32;;;;;;;6.53;2.90;;;19.10;49.80;;;17.52;36.70;99795.72;10406686;27;96882;-90
2023/04/21 17:21:35;;;;;;;6.97;2.85;;;18.80;50.30;;;17.17;37.76;99798.13;10402416;28;96540;-90
2023/04/21 17:26:38;;;;;;;8.80;3.85;;;18.50;51.10;;;16.85;38.67;99799.03;10382645;27;96717;-90
2023/04/21 17:31:41;;;;;;;6.00;3.00;;;18.10;51.60;;;16.65;38.89;99798.31;10397787;27;96641;-90
2023/04/21 17:36:44;;;;;;;4.57;2.80;;;17.90;51.90;;;16.42;39.48;99795.34;10425126;27;96797;-90
2023/04/21 17:41:47;;;;;;;5.05;2.80;;;17.60;52.30;;;16.21;39.75;99799.19;10391414;28;96698;-87
2023/04/21 17:46:51;;;;;;;5.65;2.92;;;17.50;52.40;;;15.98;40.30;99811.25;10421440;28;96684;-86
2023/04/21 17:51:54;;;;;;;6.85;3.38;;;17.30;52.90;;;15.76;40.60;99824.09;10386882;27;98300;-86
2023/04/21 17:56:57;;;;;;;5.07;3.55;;;17.00;53.30;;;15.56;41.19;99822.47;10379457;27;96653;-86
2023/04/21 18:02:00;;;;;;;12.38;4.25;;;16.90;53.80;;;15.36;41.94;99826.03;10383355;28;97463;-85
2023/04/21 18:07:04;;;;;;;8.57;3.97;;;16.70;54.40;;;15.19;42.38;99827.47;10398915;27;96680;-85
2023/04/21 18:12:07;;;;;;;9.80;4.03;;;16.50;54.60;;;15.05;42.83;99821.28;10396335;27;97483;-86
2023/04/21 18:17:11;;;;;;;6.15;3.85;;;16.30;55.10;;;14.89;43.22;99840.44;10380625;27;96539;-85
2023/04/21 18:22:17;;;;;;;7.15;3.97;;;16.20;55.60;;;14.76;43.67;99838.56;10398101;27;96806;-85
2023/04/21 18:27:20;;;;;;;5.75;3.72;;;16.10;55.90;;;14.65;44.03;99837.31;10395786;27;98737;-85
2023/04/21 18:32:23;;;;;;;6.38;3.90;;;15.90;56.00;;;14.56;44.47;99841.19;10377808;27;97083;-85
2023/04/21 18:37:27;;;;;;;7.30;3.70;;;15.90;56.30;;;14.46;44.76;99843.41;10377152;27;97163;-85
2023/04/21 18:42:30;;;;;;;7.78;4.45;;;15.80;56.70;;;14.38;45.14;99843.59;10405650;27;96639;-85
2023/04/21 18:47:33;;;;;;;7.07;4.22;;;15.70;56.90;;;14.30;45.55;99857.13;10392451;28;96865;-86
2023/04/21 18:52:37;;;;;;;5.25;3.90;;;15.60;57.30;;;14.19;45.81;99853.19;10370097;27;98867;-86
2023/04/21 18:57:40;;;;;;;8.27;3.50;;;15.50;57.60;;;14.09;46.40;99852.72;10379741;28;96620;-86
2023/04/21 19:02:47;;;;;;;7.00;3.83;;;15.40;57.90;;;13.91;46.70;99846.09;10390837;28;98458;-86
2023/04/21 19:07:51;;;;;;;4.83;3.30;;;15.20;58.10;;;13.75;47.34;99848.25;10413726;27;96772;-86
2023/04/21 19:12:54;;;;;;;6.03;3.83;;;15.10;58.30;;;13.58;48.55;99851.22;10402676;28;98210;-85
2023/04/21 19:17:57;;;;;;;6.40;4.03;;;15.00;59.30;;;13.37;49.15;99857.47;10394711;27;96716;-85
2023/04/21 19:23:00;;;;;;;6.73;3.70;;;14.70;60.40;;;13.13;49.35;99852.50;10396446;28;97804;-85
2023/04/21 19:28:05;;;;;;;5.47;3.57;;;14.50;60.10;;;12.97;49.72;99848.28;10402368;27;96621;-85
2023/04/21 19:33:08;;;;;;;8.33;3.90;;;14.30;60.70;;;12.84;50.37;99850.84;10381392;28;98122;-85
2023/04/21 19:38:11;;;;;;;6.50;4.20;;;14.20;61.10;;;12.73;50.95;99857.50;10391406;27;98774;-86
2023/04/21 19:43:14;;;;;;;6.47;4.30;;;14.10;61.50;;;12.57;51.17;99855.88;10380685;27;97506;-86
2023/04/21 19:48:17;;;;;;;7.50;4.10;;;13.90;61.90;;;12.46;51.45;99861.69;10395028;27;97291;-86
2023/04/21 19:53:21;;;;;;;8.23;4.43;;;13.80;62.50;;;12.34;52.08;99863.19;10399138;27;96696;-85
2023/04/21 19:58:24;;;;;;;5.70;3.80;;;13.70;62.90;;;12.23;52.00;99867.16;10370175;28;96524;-86
2023/04/21 20:03:42;;;;;;;5.60;3.93;;;13.60;62.80;;;12.12;52.11;99865.00;10398902;27;96998;-86
2023/04/21 20:08:45;;;;;;;8.47;3.33;;;13.50;62.80;;;12.01;52.45;99860.97;10380001;28;96650;-86
2023/04/21 20:13:48;;;;;;;7.43;4.23;;;13.40;62.90;;;11.86;53.68;99868.13;10378247;27;97545;-86
2023/04/21 20:18:52;;;;;;;7.93;4.47;;;13.30;63.70;;;11.75;54.45;99868.56;10354568;28;96578;-85
2023/04/21 20:23:55;;;;;;;8.20;4.50;;;13.20;64.60;;;11.63;55.37;99875.34;10398690;27;96890;-85
2023/04/21 20:28:58;;;;;;;9.20;5.43;;;13.00;65.00;;;11.52;55.00;99877.47;10377181;28;97719;-85
2023/04/21 20:34:01;;;;;;;9.73;4.83;;;13.00;65.30;;;11.39;55.54;99885.22;10378237;28;96768;-87
2023/04/21 20:39:05;;;;;;;7.10;4.47;;;12.90;65.70;;;11.23;56.25;99880.88;10377744;28;96611;-85
2023/04/21 20:44:08;;;;;;;8.93;5.03;;;12.70;66.00;;;11.12;56.29;99885.81;10383440;28;97857;-84
2023/04/21 20:49:11;;;;;;;10.23;4.80;;;12.50;66.60;;;10.96;58.23;99895.56;10410773;28;96566;-86
2023/04/21 20:54:14;;;;;;;9.23;5.13;;;12.50;67.10;;;10.83;58.82;99897.16;10378744;28;96537;-85
2023/04/21 20:59:18;;;;;;;10.27;5.97;;;12.30;68.40;;;10.74;59.51;99895.56;10378023;28;98290;-84
2023/04/21 21:04:21;;;;;;;10.07;5.60;;;12.20;69.30;;;10.66;59.90;99893.78;10377962;28;96701;-85